Time;durP1;ratioP1;P1;durP2;ratioP2;P2;SDS_P1;SDS_P2;PMS_P1;PMS_P2;Temp;Humidity;BMP_temperature;BMP_pressure;BME280_temperature;BME280_humidity;BME280_pressure;Samples;Min_cycle;Max_cycle;Signal;HPM_P1;HPM_P2
2022/11/01 00:02:09;;;;;;;53.17;26.85;;;16.60;99.90;;;;;;4907367;29;20030;-93
2022/11/01 00:04:36;;;;;;;45.53;26.45;;;16.60;99.90;;;;;;4923017;29;20039;-92
2022/11/01 00:07:02;;;;;;;55.38;27.73;;;16.50;99.90;;;;;;4923189;29;20479;-92
2022/11/01 00:09:29;;;;;;;49.63;25.90;;;16.50;99.90;;;;;;4922966;29;20044;-92
2022/11/01 00:11:55;;;;;;;48.33;25.45;;;16.40;99.90;;;;;;4923018;29;20391;-92
2022/11/01 00:14:22;;;;;;;43.03;23.77;;;16.40;99.90;;;;;;4923209;29;20044;-91
2022/11/01 00:16:48;;;;;;;46.17;24.00;;;16.40;99.90;;;;;;4923161;29;20120;-92
2022/11/01 00:19:15;;;;;;;45.50;23.52;;;16.40;99.90;;;;;;4923155;29;20491;-92
2022/11/01 00:21:41;;;;;;;43.05;22.95;;;16.40;99.90;;;;;;4907065;29;20056;-92
2022/11/01 00:24:08;;;;;;;38.00;21.45;;;16.40;99.90;;;;;;4922736;29;20032;-91
2022/11/01 00:26:34;;;;;;;38.72;21.80;;;16.40;99.90;;;;;;4907338;29;20035;-91
2022/11/01 00:29:01;;;;;;;43.63;22.10;;;16.50;99.90;;;;;;4922970;29;20035;-91
2022/11/01 00:31:28;;;;;;;47.70;23.92;;;16.40;99.90;;;;;;4922966;29;20131;-92
2022/11/01 00:33:55;;;;;;;43.33;23.52;;;16.40;99.90;;;;;;4923175;29;20043;-93
2022/11/01 00:36:21;;;;;;;39.67;20.42;;;16.30;99.90;;;;;;4907024;29;20476;-92
2022/11/01 00:38:51;;;;;;;39.53;20.73;;;16.30;99.90;;;;;;4922692;29;20090;-92
2022/11/01 00:41:21;;;;;;;39.15;22.10;;;16.30;99.90;;;;;;4906577;29;20095;-91
2022/11/01 00:43:48;;;;;;;41.83;21.27;;;16.20;99.90;;;;;;4922411;29;20044;-93
2022/11/01 00:46:15;;;;;;;40.38;20.90;;;16.10;99.90;;;;;;4922300;29;20078;-91
2022/11/01 00:48:42;;;;;;;40.60;20.42;;;16.10;99.90;;;;;;4922338;29;20140;-91
2022/11/01 00:51:08;;;;;;;33.83;19.02;;;16.00;99.90;;;;;;4922387;29;20028;-92
2022/11/01 00:53:35;;;;;;;41.28;21.35;;;16.00;99.90;;;;;;4921521;29;20033;-91
2022/11/01 00:56:04;;;;;;;36.00;18.75;;;16.00;99.90;;;;;;4922292;29;20027;-91
2022/11/01 00:58:31;;;;;;;38.25;19.85;;;15.90;99.90;;;;;;4922495;29;20028;-92
2022/11/01 01:00:58;;;;;;;38.50;18.88;;;15.90;99.90;;;;;;4923150;29;20082;-92
2022/11/01 01:03:25;;;;;;;40.38;21.08;;;15.90;99.90;;;;;;4922195;29;20390;-92
2022/11/01 01:05:53;;;;;;;32.10;18.15;;;15.80;99.90;;;;;;4906620;29;20020;-91
2022/11/01 01:08:21;;;;;;;34.20;18.48;;;15.80;99.90;;;;;;4922131;29;20108;-92
2022/11/01 01:10:48;;;;;;;34.42;17.58;;;15.70;99.90;;;;;;4922244;29;20031;-92
2022/11/01 01:13:16;;;;;;;36.63;17.98;;;15.70;99.90;;;;;;4922468;29;20032;-92
2022/11/01 01:15:43;;;;;;;32.63;18.50;;;15.60;99.90;;;;;;4907445;29;20091;-91
2022/11/01 01:18:10;;;;;;;36.88;17.83;;;15.60;99.90;;;;;;4923771;29;20028;-92
2022/11/01 01:20:37;;;;;;;31.90;16.90;;;15.60;99.90;;;;;;4906154;29;20028;-92
2022/11/01 01:23:04;;;;;;;32.75;18.75;;;15.60;99.90;;;;;;4921614;29;20047;-92
2022/11/01 01:25:31;;;;;;;36.35;19.40;;;15.50;99.90;;;;;;4921570;29;20038;-91
2022/11/01 01:27:58;;;;;;;38.97;17.65;;;15.50;99.90;;;;;;4921627;29;20118;-93
2022/11/01 01:30:25;;;;;;;31.83;17.65;;;15.50;99.90;;;;;;4921552;29;20114;-92
2022/11/01 01:32:54;;;;;;;33.08;16.35;;;15.60;99.90;;;;;;4921347;29;20027;-91
2022/11/01 01:35:21;;;;;;;34.70;17.52;;;15.50;99.90;;;;;;4921213;29;20087;-91
2022/11/01 01:37:48;;;;;;;32.13;16.33;;;15.40;99.90;;;;;;4921418;29;20481;-91
2022/11/01 01:40:14;;;;;;;26.60;14.73;;;15.40;99.90;;;;;;4921382;29;20450;-91
2022/11/01 01:42:42;;;;;;;26.42;15.23;;;15.30;99.90;;;;;;4921319;29;20386;-91
2022/11/01 01:45:22;;;;;;;29.30;15.02;;;15.30;99.90;;;;;;4905732;29;20023;-91
2022/11/01 01:47:52;;;;;;;25.48;15.80;;;15.30;99.90;;;;;;4921159;29;20099;-92
2022/11/01 01:50:43;;;;;;;28.52;15.55;;;15.20;99.90;;;;;;4905551;29;20035;-92
2022/11/01 01:53:24;;;;;;;34.33;17.42;;;15.20;99.90;;;;;;4905306;29;20035;-92
2022/11/01 01:56:01;;;;;;;33.53;17.70;;;15.30;99.90;;;;;;4905552;29;20031;-91
2022/11/01 01:58:33;;;;;;;39.33;19.45;;;15.30;99.90;;;;;;4905316;29;20028;-91
2022/11/01 02:01:00;;;;;;;34.28;18.60;;;15.30;99.90;;;;;;4920964;29;20039;-92
2022/11/01 02:03:30;;;;;;;31.00;18.65;;;15.30;99.90;;;;;;4921009;29;20044;-92
2022/11/01 02:06:06;;;;;;;36.58;18.00;;;15.30;99.90;;;;;;4904276;29;20059;-91
2022/11/01 02:08:34;;;;;;;33.80;18.45;;;15.30;99.90;;;;;;4915963;29;20516;-91
2022/11/01 02:11:05;;;;;;;44.90;20.38;;;15.30;99.90;;;;;;4901994;29;20067;-91
2022/11/01 02:13:32;;;;;;;30.75;18.40;;;15.30;99.90;;;;;;4917691;29;20036;-92
2022/11/01 02:16:21;;;;;;;33.63;18.90;;;15.30;99.90;;;;;;4886295;29;20067;-92
2022/11/01 02:18:54;;;;;;;27.20;15.88;;;15.30;99.90;;;;;;4902067;29;20028;-92
2022/11/01 02:21:30;;;;;;;29.77;16.20;;;15.20;99.90;;;;;;4901854;29;20032;-92
2022/11/01 02:24:21;;;;;;;28.23;17.00;;;15.20;99.90;;;;;;4901682;29;20043;-92
2022/11/01 02:27:18;;;;;;;34.95;18.45;;;15.10;99.90;;;;;;4901773;29;20465;-92
2022/11/01 02:29:50;;;;;;;38.05;19.23;;;15.10;99.90;;;;;;4901522;29;20060;-92
2022/11/01 02:32:38;;;;;;;32.92;19.33;;;15.10;99.90;;;;;;4901567;29;20030;-92
2022/11/01 02:35:23;;;;;;;38.78;19.15;;;15.10;99.90;;;;;;4901456;29;20039;-92
2022/11/01 02:38:14;;;;;;;33.67;20.23;;;15.10;99.90;;;;;;4886084;29;20489;-92
2022/11/01 02:40:47;;;;;;;36.67;18.65;;;15.10;99.90;;;;;;4901675;29;20055;-92
2022/11/01 02:43:39;;;;;;;35.40;17.85;;;15.10;99.90;;;;;;4885839;29;20043;-91
2022/11/01 02:48:55;;;;;;;34.53;17.73;;;15.00;99.90;;;;;;4916944;29;20032;-92
2022/11/01 02:51:24;;;;;;;31.50;19.08;;;15.00;99.90;;;;;;4886012;29;20367;-92
2022/11/01 02:53:51;;;;;;;41.90;20.60;;;15.00;99.90;;;;;;4885833;29;20099;-93
2022/11/01 02:56:18;;;;;;;36.25;17.98;;;14.90;99.90;;;;;;4917109;29;20051;-92
2022/11/01 02:58:47;;;;;;;46.67;20.02;;;14.90;99.90;;;;;;4901313;29;20126;-92
2022/11/01 03:01:24;;;;;;;35.85;18.42;;;14.90;99.90;;;;;;4901166;29;20066;-91
2022/11/01 03:03:54;;;;;;;32.88;17.15;;;14.90;99.90;;;;;;4901261;29;20044;-92
2022/11/01 03:06:36;;;;;;;33.78;18.30;;;14.90;99.90;;;;;;4885691;29;20039;-91
2022/11/01 03:09:23;;;;;;;38.42;19.67;;;14.80;99.90;;;;;;4909554;29;20086;-92
2022/11/01 03:12:05;;;;;;;38.17;22.38;;;14.80;99.90;;;;;;4919810;29;20044;-92
2022/11/01 03:14:47;;;;;;;38.78;20.70;;;14.80;99.90;;;;;;4920084;29;20031;-91
2022/11/01 03:17:26;;;;;;;38.08;20.67;;;14.90;99.90;;;;;;4919615;29;20031;-91
2022/11/01 03:20:20;;;;;;;33.92;19.27;;;15.00;99.90;;;;;;4935900;29;20481;-91
2022/11/01 03:22:54;;;;;;;38.67;21.08;;;14.90;99.90;;;;;;4920813;29;20067;-92
2022/11/01 03:25:41;;;;;;;39.22;20.58;;;14.90;99.90;;;;;;4923977;29;20040;-92
2022/11/01 03:28:38;;;;;;;42.13;21.30;;;14.90;99.90;;;;;;4905046;29;20066;-91
2022/11/01 03:31:17;;;;;;;45.30;20.98;;;15.00;99.90;;;;;;4904254;29;20082;-92
2022/11/01 03:33:48;;;;;;;38.70;19.35;;;14.90;99.90;;;;;;4919772;29;20036;-92
2022/11/01 03:36:18;;;;;;;43.70;22.85;;;14.90;99.90;;;;;;4903955;29;20556;-91
2022/11/01 03:38:55;;;;;;;49.65;24.45;;;14.90;99.90;;;;;;4904163;29;20023;-94
2022/11/01 03:41:23;;;;;;;44.28;22.60;;;14.90;99.90;;;;;;4919478;29;20040;-93
2022/11/01 03:43:56;;;;;;;47.42;21.90;;;14.90;99.90;;;;;;4903846;29;20036;-92
2022/11/01 03:46:22;;;;;;;44.72;21.83;;;14.90;99.90;;;;;;4919747;29;20083;-92
2022/11/01 03:48:49;;;;;;;46.80;23.38;;;14.90;99.90;;;;;;4904047;29;20032;-91
2022/11/01 03:51:16;;;;;;;42.92;23.02;;;14.90;99.90;;;;;;4919682;29;20103;-92
2022/11/01 03:53:43;;;;;;;49.25;22.67;;;14.90;99.90;;;;;;4919485;29;20031;-91
2022/11/01 03:56:10;;;;;;;44.03;22.75;;;15.00;99.90;;;;;;4919278;29;20057;-92
2022/11/01 03:58:51;;;;;;;51.28;23.08;;;14.90;99.90;;;;;;4919490;29;20059;-92
2022/11/01 04:01:18;;;;;;;45.25;21.98;;;14.90;99.90;;;;;;4919721;29;20031;-91
2022/11/01 04:03:45;;;;;;;40.03;20.20;;;14.90;99.90;;;;;;4919375;29;20035;-92
2022/11/01 04:06:11;;;;;;;34.08;20.10;;;14.80;99.90;;;;;;4919648;29;20095;-91
2022/11/01 04:08:38;;;;;;;38.95;19.40;;;14.80;99.90;;;;;;4919416;29;20079;-91
2022/11/01 04:11:05;;;;;;;35.55;20.95;;;14.70;99.90;;;;;;4919721;29;20035;-92
2022/11/01 04:13:50;;;;;;;42.65;21.75;;;14.70;99.90;;;;;;4903651;29;20032;-91
2022/11/01 04:21:50;;;;;;;44.72;23.30;;;14.70;99.90;;;;;;4935255;29;20545;-92
2022/11/01 04:24:19;;;;;;;46.20;24.15;;;14.80;99.90;;;;;;4903885;29;20142;-91
2022/11/01 04:26:49;;;;;;;37.45;18.85;;;14.80;99.90;;;;;;4903467;29;20032;-93
2022/11/01 04:29:19;;;;;;;37.05;20.05;;;14.70;99.90;;;;;;4921331;29;20028;-92
2022/11/01 04:31:45;;;;;;;40.25;20.73;;;14.60;99.90;;;;;;4923143;29;20385;-91
2022/11/01 04:34:12;;;;;;;42.25;21.38;;;14.60;99.90;;;;;;4922681;29;20501;-90
2022/11/01 04:36:38;;;;;;;46.05;21.77;;;14.60;99.90;;;;;;4922448;29;20059;-92
2022/11/01 04:39:04;;;;;;;44.47;22.83;;;14.60;99.90;;;;;;4922697;29;20032;-91
2022/11/01 04:41:31;;;;;;;36.42;22.02;;;14.60;99.90;;;;;;4907101;29;20506;-91
2022/11/01 04:43:58;;;;;;;41.05;21.38;;;14.60;99.90;;;;;;4922519;29;20028;-92
2022/11/01 04:46:29;;;;;;;34.22;20.08;;;14.50;99.90;;;;;;4906449;29;20032;-91
2022/11/01 18:01:58;;;;;;;47.65;27.15;;;17.50;99.90;;;;;;5640988;23;20052;-92
2022/11/01 18:11:13;;;;;;;52.22;27.42;;;17.40;99.90;;;;;;5163693;23;20092;-94
2022/11/01 18:14:26;;;;;;;47.58;27.67;;;17.30;99.90;;;;;;5432646;23;20086;-93
2022/11/01 19:37:21;;;;;;;50.40;28.58;;;16.90;99.90;;;;;;1529261;23;20344;-92
2022/11/01 19:39:51;;;;;;;69.07;33.78;;;16.90;99.90;;;;;;4827338;29;20061;-92
2022/11/01 19:42:30;;;;;;;61.00;33.15;;;16.80;99.90;;;;;;4814045;29;20040;-93
2022/11/01 19:45:27;;;;;;;57.45;33.15;;;16.70;99.90;;;;;;4826897;29;20124;-90
2022/11/01 19:47:54;;;;;;;56.08;31.70;;;16.70;99.90;;;;;;4826851;29;20045;-92
2022/11/01 19:50:25;;;;;;;49.45;28.45;;;16.60;99.90;;;;;;4812710;29;20030;-91
2022/11/01 19:52:57;;;;;;;53.65;28.13;;;16.60;99.90;;;;;;4811811;29;20088;-92
2022/11/01 19:55:38;;;;;;;34.55;23.75;;;16.50;99.90;;;;;;4827236;29;20052;-92
2022/11/01 19:58:21;;;;;;;30.50;22.50;;;16.40;99.90;;;;;;4827780;29;20038;-92
2022/11/01 20:00:48;;;;;;;37.83;23.33;;;16.40;99.90;;;;;;4815660;29;20121;-93
2022/11/01 20:03:25;;;;;;;47.90;29.70;;;16.30;99.90;;;;;;4815359;29;20090;-94
2022/11/01 20:05:55;;;;;;;50.03;29.27;;;16.30;99.90;;;;;;4811521;29;20038;-93
2022/11/01 20:08:28;;;;;;;44.83;27.92;;;16.20;99.90;;;;;;4828915;29;20038;-92
2022/11/01 20:10:55;;;;;;;51.83;29.42;;;16.20;99.90;;;;;;4816024;29;20030;-93
2022/11/01 20:13:21;;;;;;;45.45;28.15;;;16.30;99.90;;;;;;4815197;29;20551;-93
2022/11/01 20:15:48;;;;;;;44.80;27.95;;;16.30;99.90;;;;;;4814986;29;20045;-92
2022/11/01 20:18:15;;;;;;;44.03;28.25;;;16.20;99.90;;;;;;4815201;29;20049;-92
2022/11/01 20:20:44;;;;;;;40.85;26.05;;;16.20;99.90;;;;;;4830235;29;20120;-91
2022/11/01 20:23:12;;;;;;;40.88;26.73;;;16.20;99.90;;;;;;4814655;29;20053;-93
2022/11/01 20:25:38;;;;;;;38.80;25.65;;;16.10;99.90;;;;;;4829945;29;20034;-93
2022/11/01 20:28:06;;;;;;;41.83;25.17;;;16.10;99.90;;;;;;4814654;29;20026;-92
2022/11/01 20:30:32;;;;;;;46.70;25.08;;;16.00;99.90;;;;;;4830651;29;20087;-93
2022/11/01 20:32:59;;;;;;;43.63;24.58;;;15.90;99.90;;;;;;4815045;29;20026;-93
2022/11/01 20:35:26;;;;;;;33.92;21.85;;;15.80;99.90;;;;;;4814595;29;20045;-93
2022/11/01 20:38:24;;;;;;;36.30;22.33;;;15.70;99.90;;;;;;4817945;29;20449;-93
2022/11/01 20:41:04;;;;;;;40.05;22.70;;;15.70;99.90;;;;;;4830034;29;20034;-92
2022/11/01 20:43:32;;;;;;;34.80;21.05;;;15.60;99.90;;;;;;4814453;29;20445;-92
2022/11/01 20:45:58;;;;;;;36.35;22.25;;;15.60;99.90;;;;;;4814665;29;20026;-93
2022/11/01 20:48:25;;;;;;;30.80;20.77;;;15.60;99.90;;;;;;4829544;29;20034;-92
2022/11/01 20:50:52;;;;;;;34.88;20.65;;;15.70;99.90;;;;;;4815804;29;20026;-92
2022/11/01 20:53:19;;;;;;;37.47;19.92;;;15.70;99.90;;;;;;4829373;29;20102;-91
2022/11/01 20:55:46;;;;;;;32.88;20.75;;;15.70;99.90;;;;;;4815440;29;20030;-93
2022/11/01 20:58:13;;;;;;;32.42;20.90;;;15.60;99.90;;;;;;4829471;29;20038;-92
2022/11/01 21:00:39;;;;;;;39.53;22.63;;;15.70;99.90;;;;;;4816377;29;20214;-93
2022/11/01 21:03:19;;;;;;;33.00;21.17;;;15.60;99.90;;;;;;4816231;29;20048;-93
2022/11/01 21:05:48;;;;;;;32.72;19.42;;;15.60;99.90;;;;;;4817693;29;20037;-93
2022/11/01 21:08:23;;;;;;;33.88;20.48;;;15.60;99.90;;;;;;4816059;29;20030;-93
2022/11/01 21:10:56;;;;;;;35.65;19.80;;;15.60;99.90;;;;;;4829154;29;20042;-94
2022/11/01 21:13:30;;;;;;;33.25;18.30;;;15.60;99.90;;;;;;4815800;29;20037;-93
2022/11/01 21:15:59;;;;;;;33.13;17.83;;;15.70;99.90;;;;;;4832228;29;20069;-93
2022/11/01 21:18:43;;;;;;;31.40;17.98;;;15.80;99.90;;;;;;4814399;29;20034;-93
2022/11/01 21:21:13;;;;;;;29.47;17.07;;;16.00;99.90;;;;;;4814376;29;20049;-93
2022/11/01 21:23:45;;;;;;;27.25;16.73;;;16.00;99.90;;;;;;4815134;29;20109;-93
2022/11/01 21:26:21;;;;;;;27.80;16.08;;;15.90;99.90;;;;;;4829863;29;20134;-93
2022/11/01 21:28:53;;;;;;;27.98;17.63;;;15.90;99.90;;;;;;4815347;29;20117;-93
2022/11/01 21:31:26;;;;;;;29.08;16.73;;;15.90;99.90;;;;;;4814433;29;20037;-93
2022/11/01 21:34:03;;;;;;;30.47;16.93;;;15.90;99.90;;;;;;4835636;29;20038;-92
2022/11/01 21:36:39;;;;;;;32.13;17.40;;;15.80;99.90;;;;;;4851295;29;20038;-94
2022/11/01 21:39:31;;;;;;;28.25;16.17;;;15.80;99.90;;;;;;4852451;29;20041;-93
2022/11/01 21:42:35;;;;;;;29.00;15.98;;;15.70;99.90;;;;;;4835186;29;20050;-93
2022/11/01 21:45:30;;;;;;;25.50;15.43;;;15.70;99.90;;;;;;4808372;29;20049;-94
2022/11/01 21:48:14;;;;;;;29.55;15.02;;;15.60;99.90;;;;;;4829762;29;20033;-93
2022/11/01 21:50:41;;;;;;;27.27;15.50;;;15.60;99.90;;;;;;4829289;29;20034;-92
2022/11/01 21:53:11;;;;;;;25.10;14.48;;;15.60;99.90;;;;;;4814698;29;20036;-93
2022/11/01 21:55:41;;;;;;;23.85;14.73;;;15.50;99.90;;;;;;4814820;29;20041;-93
2022/11/01 21:58:08;;;;;;;27.70;15.93;;;15.50;99.90;;;;;;4815004;29;20055;-93
2022/11/01 22:00:35;;;;;;;28.92;16.10;;;15.50;99.90;;;;;;4829338;29;20503;-94
2022/11/01 22:03:01;;;;;;;25.48;16.42;;;15.50;99.90;;;;;;4813718;29;20054;-94
2022/11/01 22:05:28;;;;;;;29.70;16.02;;;15.50;99.90;;;;;;4813490;29;20042;-93
2022/11/01 22:07:54;;;;;;;32.65;17.55;;;15.40;99.90;;;;;;4813359;29;20387;-93
2022/11/01 22:10:21;;;;;;;31.23;16.75;;;15.40;99.90;;;;;;4828734;29;20395;-93
2022/11/01 22:12:47;;;;;;;34.58;17.35;;;15.40;99.90;;;;;;4815230;29;20053;-94
2022/11/01 22:15:14;;;;;;;32.75;15.90;;;15.40;99.90;;;;;;4828298;29;20030;-93
2022/11/01 22:17:41;;;;;;;34.95;15.75;;;15.40;99.90;;;;;;4813076;29;20433;-93
2022/11/01 22:20:08;;;;;;;27.17;15.93;;;15.40;99.90;;;;;;4811106;29;20026;-92
2022/11/01 22:22:34;;;;;;;27.23;15.15;;;15.40;99.90;;;;;;4813918;29;20037;-92
2022/11/01 22:25:01;;;;;;;27.33;16.00;;;15.40;99.90;;;;;;4827825;29;20034;-92
2022/11/01 22:27:27;;;;;;;28.35;15.13;;;15.40;99.90;;;;;;4812941;29;20029;-92
2022/11/01 22:29:54;;;;;;;31.05;15.45;;;15.40;99.90;;;;;;4828098;29;20480;-92
2022/11/01 22:32:21;;;;;;;28.13;15.50;;;15.40;99.90;;;;;;4812818;29;20037;-92
2022/11/01 22:34:47;;;;;;;26.75;15.55;;;15.40;99.90;;;;;;4812631;29;20036;-92
2022/11/01 22:37:14;;;;;;;35.80;20.02;;;15.50;99.90;;;;;;4827799;29;20038;-92
2022/11/01 22:39:41;;;;;;;40.60;20.45;;;15.70;99.90;;;;;;4812653;29;20061;-92
2022/11/01 22:42:12;;;;;;;44.88;22.52;;;15.80;99.90;;;;;;4827927;29;20049;-92
2022/11/01 22:44:42;;;;;;;46.15;24.50;;;15.90;99.90;;;;;;4812848;29;20488;-93
2022/11/01 22:47:26;;;;;;;39.08;21.85;;;15.90;99.90;;;;;;4812501;29;20121;-93
2022/11/01 22:49:55;;;;;;;36.40;20.23;;;16.00;99.90;;;;;;4812646;29;20128;-93
2022/11/01 22:52:28;;;;;;;33.05;19.17;;;16.00;99.90;;;;;;4827668;29;20556;-92
2022/11/01 22:55:24;;;;;;;32.25;17.30;;;15.90;99.90;;;;;;4812396;29;20044;-91
2022/11/01 22:57:59;;;;;;;29.90;17.67;;;15.80;99.90;;;;;;4827934;29;20037;-92
2022/11/01 23:00:37;;;;;;;33.97;19.20;;;15.80;99.90;;;;;;4812327;29;20041;-92
2022/11/01 23:03:35;;;;;;;39.13;19.85;;;15.70;99.90;;;;;;4827562;29;20038;-91
2022/11/01 23:06:32;;;;;;;34.53;17.77;;;15.70;99.90;;;;;;4827554;29;20034;-92
2022/11/01 23:09:14;;;;;;;32.38;19.67;;;15.60;99.90;;;;;;4757717;30;20047;-91
2022/11/01 23:15:31;;;;;;;28.88;15.85;;;15.40;99.90;;;;;;4737355;30;20032;-92
2022/11/01 23:18:11;;;;;;;36.33;16.70;;;15.30;99.90;;;;;;4737017;30;20032;-93
2022/11/01 23:20:40;;;;;;;29.00;16.95;;;15.30;99.90;;;;;;4762503;30;20044;-92
2022/11/01 23:23:31;;;;;;;31.27;17.30;;;15.20;99.90;;;;;;4772425;30;20043;-93
2022/11/01 23:26:07;;;;;;;30.25;17.63;;;15.20;99.90;;;;;;4786915;30;20510;-92
2022/11/01 23:28:34;;;;;;;35.50;18.55;;;15.10;99.90;;;;;;4758887;30;20055;-93
2022/11/01 23:31:03;;;;;;;38.40;21.33;;;15.10;99.90;;;;;;4772273;30;20032;-92
2022/11/01 23:33:51;;;;;;;39.25;19.92;;;15.10;99.90;;;;;;4773337;29;20051;-94
2022/11/01 23:36:36;;;;;;;33.28;18.88;;;15.00;99.90;;;;;;4775960;30;20028;-93
2022/11/01 23:39:08;;;;;;;34.83;18.08;;;15.10;99.90;;;;;;4761013;30;20547;-92
2022/11/01 23:41:45;;;;;;;34.22;17.30;;;15.10;99.90;;;;;;4775879;30;20043;-92
2022/11/01 23:44:31;;;;;;;31.92;17.23;;;15.10;99.90;;;;;;4761028;30;20047;-92
2022/11/01 23:47:18;;;;;;;31.15;17.35;;;15.10;99.90;;;;;;4810922;29;20077;-92
2022/11/01 23:49:46;;;;;;;25.60;15.77;;;15.00;99.90;;;;;;4815508;29;20129;-93
2022/11/01 23:52:43;;;;;;;23.83;14.35;;;15.00;99.90;;;;;;4815964;29;20034;-93
2022/11/01 23:55:39;;;;;;;27.17;15.05;;;15.00;99.90;;;;;;4761945;30;20076;-92
2022/11/01 23:58:16;;;;;;;26.73;13.93;;;14.90;99.90;;;;;;4776067;30;20027;-92
